Time;durP1;ratioP1;P1;durP2;ratioP2;P2;SDS_P1;SDS_P2;PMS_P1;PMS_P2;Temp;Humidity;BMP_temperature;BMP_pressure;BME280_temperature;BME280_humidity;BME280_pressure;Samples;Min_cycle;Max_cycle;Signal;HPM_P1;HPM_P2
2021/09/28 00:00:54;;;;;;;17.48;2.88;;;13.20;99.90;;;;;;2086139;28;20021;-72
2021/09/28 00:01:55;;;;;;;26.10;3.63;;;13.20;99.90;;;;;;2093745;28;20609;-72
2021/09/28 00:02:55;;;;;;;18.17;2.83;;;13.20;99.90;;;;;;2094291;28;20522;-72
2021/09/28 00:03:56;;;;;;;17.50;2.33;;;13.20;99.90;;;;;;2091414;28;20065;-72
2021/09/28 00:04:57;;;;;;;13.75;3.05;;;13.20;99.90;;;;;;2092235;28;20024;-72
2021/09/28 00:05:57;;;;;;;19.15;2.47;;;13.20;99.90;;;;;;2090948;28;20018;-72
2021/09/28 00:06:58;;;;;;;15.07;2.85;;;13.10;99.90;;;;;;2090499;28;20469;-75
2021/09/28 00:07:59;;;;;;;18.63;2.78;;;13.10;99.90;;;;;;2096103;28;20408;-74
2021/09/28 00:08:59;;;;;;;16.15;2.83;;;13.00;99.90;;;;;;2100469;28;20016;-74
2021/09/28 00:10:00;;;;;;;19.40;2.95;;;13.00;99.90;;;;;;2109773;28;20078;-72
2021/09/28 00:11:01;;;;;;;20.08;2.63;;;13.00;99.90;;;;;;2093216;28;20013;-72
2021/09/28 00:12:01;;;;;;;21.42;2.70;;;13.00;99.90;;;;;;2094765;28;20622;-73
2021/09/28 00:13:07;;;;;;;18.60;3.28;;;13.00;99.90;;;;;;2084952;28;20045;-72
2021/09/28 00:14:08;;;;;;;19.00;2.65;;;13.00;99.90;;;;;;2087971;28;20021;-73
2021/09/28 00:15:10;;;;;;;12.32;2.40;;;12.90;99.90;;;;;;2087300;28;20017;-72
2021/09/28 00:16:11;;;;;;;12.82;2.53;;;12.90;99.90;;;;;;2089113;28;20025;-72
2021/09/28 00:17:12;;;;;;;12.95;2.00;;;12.80;99.90;;;;;;2086796;28;20022;-72
2021/09/28 00:18:13;;;;;;;10.70;2.15;;;12.70;99.90;;;;;;2090607;28;20538;-72
2021/09/28 00:19:13;;;;;;;15.60;2.50;;;12.70;99.90;;;;;;2086134;28;20103;-71
2021/09/28 00:20:14;;;;;;;14.45;2.00;;;12.60;99.90;;;;;;2089517;28;20071;-72
2021/09/28 00:21:15;;;;;;;25.55;2.65;;;12.60;99.90;;;;;;2089378;28;20095;-72
2021/09/28 00:22:15;;;;;;;15.52;2.50;;;12.50;99.90;;;;;;2085759;28;20120;-72
2021/09/28 00:23:16;;;;;;;12.10;2.13;;;12.50;99.90;;;;;;2089647;28;20056;-72
2021/09/28 00:24:17;;;;;;;13.90;2.30;;;12.40;99.90;;;;;;2086798;28;20448;-72
2021/09/28 00:25:18;;;;;;;13.90;2.35;;;12.40;99.90;;;;;;2090183;28;20465;-72
2021/09/28 00:26:19;;;;;;;17.52;2.67;;;12.40;99.90;;;;;;2087827;28;20040;-72
2021/09/28 00:27:19;;;;;;;17.13;2.28;;;12.40;99.90;;;;;;2083332;28;20053;-72
2021/09/28 00:28:20;;;;;;;13.68;1.88;;;12.30;99.90;;;;;;2089417;28;20116;-72
2021/09/28 00:29:21;;;;;;;18.48;2.45;;;12.30;99.90;;;;;;2085783;28;20556;-73
2021/09/28 00:30:21;;;;;;;14.65;2.47;;;12.30;99.90;;;;;;2089505;28;20053;-73
2021/09/28 00:31:22;;;;;;;20.50;2.05;;;12.30;99.90;;;;;;2089534;28;20049;-73
2021/09/28 00:32:23;;;;;;;15.75;2.88;;;12.30;99.90;;;;;;2089585;28;20535;-74
2021/09/28 00:33:25;;;;;;;13.02;2.10;;;12.20;99.90;;;;;;2089960;28;20109;-73
2021/09/28 00:34:26;;;;;;;17.75;2.22;;;12.20;99.90;;;;;;2087791;28;20029;-72
2021/09/28 00:35:27;;;;;;;22.63;2.42;;;12.20;99.90;;;;;;2087606;28;20075;-72
2021/09/28 00:36:27;;;;;;;21.15;3.03;;;12.20;99.90;;;;;;2088050;28;20102;-72
2021/09/28 00:37:28;;;;;;;13.00;2.42;;;12.10;99.90;;;;;;2086021;28;20053;-73
2021/09/28 00:38:29;;;;;;;14.77;2.13;;;12.10;99.90;;;;;;2082031;28;20032;-73
2021/09/28 00:39:29;;;;;;;14.35;2.42;;;12.10;99.90;;;;;;2081477;28;20055;-73
2021/09/28 00:40:31;;;;;;;22.83;3.17;;;12.10;99.90;;;;;;2073098;28;20689;-72
2021/09/28 00:41:31;;;;;;;15.35;2.05;;;12.10;99.90;;;;;;2085292;28;20025;-72
2021/09/28 00:42:32;;;;;;;11.10;1.95;;;12.10;99.90;;;;;;2089618;28;20036;-72
2021/09/28 00:43:51;;;;;;;18.48;2.92;;;12.00;99.90;;;;;;2084479;28;20488;-72
2021/09/28 00:44:52;;;;;;;17.42;2.78;;;12.00;99.90;;;;;;2083617;28;20017;-72
2021/09/28 00:45:53;;;;;;;21.20;2.63;;;12.10;99.90;;;;;;2089847;28;20021;-71
2021/09/28 00:46:53;;;;;;;18.45;2.60;;;12.10;99.90;;;;;;2084977;28;20025;-71
2021/09/28 00:47:54;;;;;;;17.33;2.63;;;12.20;99.90;;;;;;2097960;28;20028;-73
2021/09/28 00:48:55;;;;;;;18.20;2.80;;;12.10;99.90;;;;;;2097770;28;20152;-72
2021/09/28 00:49:55;;;;;;;25.30;3.30;;;12.20;99.90;;;;;;2083221;28;20021;-72
2021/09/28 00:50:56;;;;;;;24.60;3.17;;;12.20;99.90;;;;;;2087585;28;20078;-72
2021/09/28 00:51:57;;;;;;;24.08;2.70;;;12.10;99.90;;;;;;2096300;28;20155;-72
2021/09/28 00:52:58;;;;;;;17.70;2.63;;;12.10;99.90;;;;;;2095149;28;20036;-72
2021/09/28 00:54:00;;;;;;;20.20;2.67;;;12.10;99.90;;;;;;2081044;28;20026;-73
2021/09/28 00:55:01;;;;;;;16.88;2.47;;;12.10;99.90;;;;;;2081897;28;20026;-72
2021/09/28 00:56:01;;;;;;;22.15;2.78;;;12.10;99.90;;;;;;2087474;28;20040;-72
2021/09/28 00:57:02;;;;;;;21.58;3.25;;;12.10;99.90;;;;;;2085709;28;20059;-72
2021/09/28 00:58:08;;;;;;;17.75;2.55;;;12.10;99.90;;;;;;2082019;28;20381;-72
2021/09/28 00:59:09;;;;;;;22.60;2.90;;;12.10;99.90;;;;;;2089313;28;20017;-72
2021/09/28 01:00:11;;;;;;;14.40;2.65;;;12.10;99.90;;;;;;2087617;28;20029;-72
2021/09/28 01:01:13;;;;;;;14.18;3.30;;;12.10;99.90;;;;;;2081285;28;20025;-72
2021/09/28 01:02:14;;;;;;;19.30;2.47;;;12.20;99.90;;;;;;2081219;28;20052;-72
2021/09/28 01:03:17;;;;;;;28.93;2.80;;;12.20;99.90;;;;;;2081270;28;20118;-72
2021/09/28 01:04:17;;;;;;;25.80;2.80;;;12.30;99.90;;;;;;2086830;28;20266;-72
2021/09/28 01:05:18;;;;;;;21.02;2.63;;;12.30;99.90;;;;;;2089179;28;20025;-71
2021/09/28 01:06:19;;;;;;;22.02;2.33;;;12.30;99.90;;;;;;2088021;28;20112;-72
2021/09/28 01:07:19;;;;;;;21.52;2.50;;;12.30;99.90;;;;;;2086029;28;20457;-72
2021/09/28 01:08:20;;;;;;;19.55;3.15;;;12.30;99.90;;;;;;2089567;28;20021;-72
2021/09/28 01:09:21;;;;;;;24.30;2.70;;;12.30;99.90;;;;;;2084862;28;20025;-72
2021/09/28 01:10:22;;;;;;;17.35;3.17;;;12.20;99.90;;;;;;2086602;28;20018;-72
2021/09/28 01:11:22;;;;;;;20.92;2.55;;;12.20;99.90;;;;;;2085626;28;20037;-72
2021/09/28 01:12:23;;;;;;;21.98;2.97;;;12.20;99.90;;;;;;2079835;28;20030;-72
2021/09/28 01:13:25;;;;;;;19.58;3.13;;;12.20;99.90;;;;;;2081242;28;20093;-72
2021/09/28 01:14:26;;;;;;;20.75;2.63;;;12.10;99.90;;;;;;2084263;28;20029;-72
2021/09/28 01:15:26;;;;;;;16.13;2.60;;;12.10;99.90;;;;;;2073770;28;20030;-72
2021/09/28 01:16:27;;;;;;;16.15;2.92;;;12.00;99.90;;;;;;2082153;28;20032;-72
2021/09/28 01:17:28;;;;;;;14.45;2.75;;;11.90;99.90;;;;;;2088719;28;20496;-72
2021/09/28 01:18:31;;;;;;;9.57;2.08;;;11.80;99.90;;;;;;2089587;28;20036;-72
2021/09/28 01:19:32;;;;;;;17.08;2.42;;;11.70;99.90;;;;;;2081780;28;20025;-72
2021/09/28 01:20:35;;;;;;;16.58;2.42;;;11.70;99.90;;;;;;2082042;28;20528;-72
2021/09/28 01:21:38;;;;;;;15.70;2.83;;;11.60;99.90;;;;;;2083718;28;20416;-72
2021/09/28 01:22:39;;;;;;;20.08;2.70;;;11.60;99.90;;;;;;2085230;28;20675;-72
2021/09/28 01:23:44;;;;;;;15.65;2.40;;;11.60;99.90;;;;;;2089233;28;20083;-72
2021/09/28 01:24:48;;;;;;;14.48;2.00;;;11.50;99.90;;;;;;2085538;28;20021;-72
2021/09/28 01:25:48;;;;;;;14.70;2.40;;;11.50;99.90;;;;;;2088721;28;20106;-72
2021/09/28 01:26:49;;;;;;;16.75;2.33;;;11.50;99.90;;;;;;2085513;28;20098;-72
2021/09/28 01:27:50;;;;;;;10.75;1.98;;;11.50;99.90;;;;;;2086700;28;20533;-72
2021/09/28 01:28:52;;;;;;;13.18;2.10;;;11.50;99.90;;;;;;2087848;28;20017;-72
2021/09/28 01:29:53;;;;;;;19.33;2.97;;;11.50;99.90;;;;;;2094259;28;20020;-72
2021/09/28 01:30:56;;;;;;;13.38;2.05;;;11.40;99.90;;;;;;2089056;28;20010;-72
2021/09/28 01:31:57;;;;;;;16.63;2.25;;;11.40;99.90;;;;;;2081087;28;20049;-72
2021/09/28 01:32:58;;;;;;;21.20;2.63;;;11.40;99.90;;;;;;2090790;28;21166;-72
2021/09/28 01:33:58;;;;;;;13.90;2.05;;;11.40;99.90;;;;;;2095025;28;20040;-72
2021/09/28 01:35:01;;;;;;;18.95;2.17;;;11.30;99.90;;;;;;2089296;28;20021;-72
2021/09/28 01:36:01;;;;;;;;;;;11.30;99.90;;;;;;2086206;28;20025;-72
2021/09/28 01:37:02;;;;;;;18.75;2.45;;;11.30;99.90;;;;;;2079961;28;19909;-71
2021/09/28 01:38:03;;;;;;;19.23;2.53;;;11.30;99.90;;;;;;2087394;28;20025;-72
2021/09/28 01:39:04;;;;;;;15.23;2.40;;;11.30;99.90;;;;;;2083556;28;20025;-71
2021/09/28 01:40:06;;;;;;;14.32;1.92;;;11.20;99.90;;;;;;2089445;28;20032;-72
2021/09/28 01:41:07;;;;;;;20.05;2.17;;;11.20;99.90;;;;;;2088730;28;20040;-72
2021/09/28 01:42:07;;;;;;;15.63;2.22;;;11.20;99.90;;;;;;2088683;28;20095;-72
2021/09/28 01:43:09;;;;;;;17.70;3.25;;;11.20;99.90;;;;;;2087174;28;20520;-72
2021/09/28 01:44:13;;;;;;;12.65;2.53;;;11.20;99.90;;;;;;2080617;28;20485;-72
2021/09/28 01:45:15;;;;;;;20.70;2.22;;;11.20;99.90;;;;;;2086201;28;20037;-72
2021/09/28 01:46:15;;;;;;;19.38;2.88;;;11.10;99.90;;;;;;2088874;28;20048;-72
2021/09/28 01:47:16;;;;;;;13.73;2.70;;;11.20;99.90;;;;;;2085836;28;20594;-72
2021/09/28 01:48:17;;;;;;;17.52;2.85;;;11.20;99.90;;;;;;2080081;28;20033;-72
2021/09/28 01:49:19;;;;;;;17.30;2.70;;;11.20;99.90;;;;;;2077115;28;20512;-72
2021/09/28 01:50:20;;;;;;;12.27;2.20;;;11.20;99.90;;;;;;2086659;28;20026;-72
2021/09/28 01:51:20;;;;;;;17.95;2.58;;;11.20;99.90;;;;;;2080217;28;20116;-73
2021/09/28 01:52:21;;;;;;;20.40;3.28;;;11.20;99.90;;;;;;2087433;28;20036;-72
2021/09/28 01:53:22;;;;;;;19.38;2.75;;;11.30;99.90;;;;;;2088278;28;20040;-72
2021/09/28 01:54:22;;;;;;;22.27;3.03;;;11.30;99.90;;;;;;2086980;28;21163;-72
2021/09/28 01:55:23;;;;;;;22.50;2.70;;;11.30;99.90;;;;;;2086392;28;20090;-72
2021/09/28 01:56:26;;;;;;;18.40;2.97;;;11.40;99.90;;;;;;2086728;28;20056;-71
2021/09/28 01:57:26;;;;;;;18.30;3.20;;;11.40;99.90;;;;;;2088061;28;20032;-72
2021/09/28 01:58:27;;;;;;;17.52;2.70;;;11.40;99.90;;;;;;2088742;28;20028;-72
2021/09/28 01:59:28;;;;;;;12.95;2.30;;;11.40;99.90;;;;;;2089270;28;20109;-72
2021/09/28 02:00:29;;;;;;;16.02;2.50;;;11.40;99.90;;;;;;2088314;28;20609;-72
2021/09/28 02:01:31;;;;;;;13.68;2.88;;;11.30;99.90;;;;;;2088154;28;20044;-72
2021/09/28 02:02:32;;;;;;;18.48;2.45;;;11.40;99.90;;;;;;2086811;28;20029;-72
2021/09/28 02:03:32;;;;;;;18.15;3.00;;;11.30;99.90;;;;;;2083637;28;20025;-72
2021/09/28 02:04:33;;;;;;;17.05;2.60;;;11.30;99.90;;;;;;2089131;28;20067;-72
2021/09/28 02:05:34;;;;;;;17.88;2.35;;;11.30;99.90;;;;;;2085163;28;20608;-72
2021/09/28 02:06:40;;;;;;;19.30;2.63;;;11.30;99.90;;;;;;2081024;28;20029;-73
2021/09/28 02:07:41;;;;;;;17.25;2.70;;;11.30;99.90;;;;;;2080515;28;20029;-73
2021/09/28 02:08:42;;;;;;;20.88;2.60;;;11.30;99.90;;;;;;2078874;28;20746;-72
2021/09/28 02:09:42;;;;;;;16.15;2.42;;;11.30;99.90;;;;;;2081043;28;20389;-72
2021/09/28 02:10:43;;;;;;;21.05;3.75;;;11.30;99.90;;;;;;2085534;28;20029;-72
2021/09/28 02:11:44;;;;;;;21.52;3.53;;;11.30;99.90;;;;;;2080892;28;20500;-72
2021/09/28 02:12:44;;;;;;;18.33;2.50;;;11.30;99.90;;;;;;2086226;28;20060;-72
2021/09/28 02:13:45;;;;;;;21.90;2.78;;;11.30;99.90;;;;;;2088062;28;20519;-71
2021/09/28 02:14:46;;;;;;;18.45;2.20;;;11.30;99.90;;;;;;2080745;28;20036;-72
2021/09/28 02:15:46;;;;;;;14.90;2.65;;;11.30;99.90;;;;;;2080450;28;20104;-72
2021/09/28 02:16:47;;;;;;;17.40;2.70;;;11.30;99.90;;;;;;2080984;28;20029;-72
2021/09/28 02:17:48;;;;;;;14.50;2.55;;;11.30;99.90;;;;;;2073397;28;20113;-72
2021/09/28 02:18:49;;;;;;;13.30;2.05;;;11.30;99.90;;;;;;2082878;28;20044;-73
2021/09/28 02:19:49;;;;;;;13.85;2.25;;;11.30;99.90;;;;;;2088926;28;20021;-73
2021/09/28 02:20:50;;;;;;;15.60;2.53;;;11.30;99.90;;;;;;2088718;28;20024;-72
2021/09/28 02:21:51;;;;;;;16.60;2.08;;;11.30;99.90;;;;;;2089735;28;20025;-72
2021/09/28 02:22:52;;;;;;;13.18;2.80;;;11.30;99.90;;;;;;2089378;28;20017;-72
2021/09/28 02:23:52;;;;;;;13.38;2.45;;;11.30;99.90;;;;;;2085018;28;20021;-73
2021/09/28 02:24:53;;;;;;;18.45;2.58;;;11.20;99.90;;;;;;2082133;28;20048;-72
2021/09/28 02:25:54;;;;;;;19.08;2.72;;;11.20;99.90;;;;;;2083606;28;20048;-72
2021/09/28 02:26:54;;;;;;;15.93;2.65;;;11.20;99.90;;;;;;2080811;28;20030;-72
2021/09/28 02:27:55;;;;;;;14.73;2.58;;;11.30;99.90;;;;;;2080328;28;20056;-72
2021/09/28 02:28:56;;;;;;;20.45;3.10;;;11.30;99.90;;;;;;2081010;28;20040;-72
2021/09/28 02:29:57;;;;;;;17.55;2.40;;;11.20;99.90;;;;;;2089658;28;20091;-72
2021/09/28 02:30:58;;;;;;;22.33;2.38;;;11.30;99.90;;;;;;2086110;28;20096;-72
2021/09/28 02:31:58;;;;;;;21.27;2.67;;;11.20;99.90;;;;;;2081400;28;20029;-72
2021/09/28 02:32:59;;;;;;;16.88;2.38;;;11.20;99.90;;;;;;2084083;28;20052;-72
2021/09/28 02:34:00;;;;;;;21.42;2.95;;;11.20;99.90;;;;;;2087501;28;20100;-72
2021/09/28 02:35:01;;;;;;;20.75;2.50;;;11.30;99.90;;;;;;2088774;28;20037;-72
2021/09/28 02:36:01;;;;;;;13.57;2.42;;;11.20;99.90;;;;;;2088401;28;20021;-72
2021/09/28 02:37:04;;;;;;;20.55;2.85;;;11.20;99.90;;;;;;2088844;28;20104;-72
2021/09/28 02:38:04;;;;;;;17.13;2.78;;;11.20;99.90;;;;;;2077606;28;20384;-72
2021/09/28 02:39:11;;;;;;;19.45;2.47;;;11.20;99.90;;;;;;2082591;28;20044;-72
2021/09/28 02:40:12;;;;;;;17.50;2.90;;;11.20;99.90;;;;;;2083243;28;20021;-72
2021/09/28 02:41:13;;;;;;;15.98;2.30;;;11.20;99.90;;;;;;2080655;28;20033;-72
2021/09/28 02:42:13;;;;;;;15.90;2.00;;;11.30;99.90;;;;;;2072237;28;20572;-72
2021/09/28 02:43:14;;;;;;;19.85;2.55;;;11.30;99.90;;;;;;2083094;28;20021;-71
2021/09/28 02:44:16;;;;;;;18.58;2.42;;;11.30;99.90;;;;;;2089016;28;20025;-72
2021/09/28 02:45:17;;;;;;;;;;;11.30;99.90;;;;;;2083788;28;20048;-72
2021/09/28 02:46:18;;;;;;;19.75;2.70;;;11.30;99.90;;;;;;2072832;28;19948;-72
2021/09/28 02:47:19;;;;;;;16.48;2.70;;;11.30;99.90;;;;;;2083660;28;20103;-72
2021/09/28 02:48:20;;;;;;;23.05;2.63;;;11.30;99.90;;;;;;2082319;28;20484;-72
2021/09/28 02:49:21;;;;;;;12.43;2.22;;;11.30;99.90;;;;;;2077826;28;20021;-72
2021/09/28 02:50:21;;;;;;;15.35;2.95;;;11.40;99.90;;;;;;2080759;28;20025;-71
2021/09/28 02:51:22;;;;;;;24.02;2.60;;;11.40;99.90;;;;;;2081431;28;20018;-72
2021/09/28 02:52:23;;;;;;;14.57;2.33;;;11.40;99.90;;;;;;2080909;28;20030;-72
2021/09/28 02:53:23;;;;;;;14.88;3.08;;;11.40;99.90;;;;;;2081136;28;20014;-72
2021/09/28 02:54:24;;;;;;;17.33;2.90;;;11.40;99.90;;;;;;2081829;28;20028;-72
2021/09/28 02:55:25;;;;;;;23.27;2.70;;;11.30;99.90;;;;;;2081647;28;20156;-72
2021/09/28 02:56:26;;;;;;;23.58;3.22;;;11.30;99.90;;;;;;2083538;28;20408;-73
2021/09/28 02:57:26;;;;;;;18.23;2.80;;;11.30;99.90;;;;;;2081866;28;20025;-72
2021/09/28 02:58:27;;;;;;;16.50;2.63;;;11.30;99.90;;;;;;2081125;28;20022;-72
2021/09/28 02:59:28;;;;;;;18.10;2.70;;;11.30;99.90;;;;;;2087097;28;20512;-72
2021/09/28 03:00:28;;;;;;;18.63;3.58;;;11.30;99.90;;;;;;2084133;28;20041;-72
2021/09/28 03:01:29;;;;;;;19.13;3.20;;;11.40;99.90;;;;;;2087426;28;20519;-72
2021/09/28 03:02:30;;;;;;;19.60;2.85;;;11.40;99.90;;;;;;2081624;28;20021;-72
2021/09/28 03:03:30;;;;;;;15.20;4.30;;;11.40;99.90;;;;;;2080467;28;20470;-72
2021/09/28 03:04:31;;;;;;;28.42;3.72;;;11.40;99.90;;;;;;2072486;28;20030;-72
2021/09/28 03:05:32;;;;;;;14.05;2.90;;;11.40;99.90;;;;;;2080578;28;20382;-71
2021/09/28 03:06:33;;;;;;;18.88;2.72;;;11.40;99.90;;;;;;2081435;28;20021;-72
2021/09/28 03:07:33;;;;;;;13.93;2.50;;;11.50;99.90;;;;;;2080039;28;20517;-72
2021/09/28 03:08:34;;;;;;;21.35;2.78;;;11.40;99.90;;;;;;2086513;28;20025;-72
2021/09/28 03:09:35;;;;;;;14.60;2.55;;;11.40;99.90;;;;;;2089415;28;20032;-72
2021/09/28 03:10:37;;;;;;;12.90;2.20;;;11.40;99.90;;;;;;2089447;28;20021;-72
2021/09/28 03:11:38;;;;;;;;;;;11.50;99.90;;;;;;2089269;28;20029;-72
2021/09/28 03:12:38;;;;;;;23.27;2.80;;;11.40;99.90;;;;;;2082030;28;19905;-72
2021/09/28 03:13:39;;;;;;;19.20;2.60;;;11.40;99.90;;;;;;2081120;28;20030;-72
2021/09/28 03:14:40;;;;;;;14.80;2.47;;;11.40;99.90;;;;;;2083660;28;20025;-72
2021/09/28 03:15:40;;;;;;;12.35;2.30;;;11.40;99.90;;;;;;2088432;28;20017;-72
2021/09/28 03:16:41;;;;;;;21.05;2.83;;;11.40;99.90;;;;;;2088888;28;20378;-72
2021/09/28 03:17:42;;;;;;;21.70;3.03;;;11.40;99.90;;;;;;2082468;28;20034;-72
2021/09/28 03:18:43;;;;;;;16.30;2.83;;;11.40;99.90;;;;;;2080421;28;20060;-72
2021/09/28 03:19:43;;;;;;;23.67;3.35;;;11.40;99.90;;;;;;2084496;28;20029;-71
2021/09/28 03:20:44;;;;;;;18.20;2.58;;;11.40;99.90;;;;;;2085935;28;20067;-72
2021/09/28 03:21:45;;;;;;;16.38;2.42;;;11.40;99.90;;;;;;2084024;28;20029;-72
2021/09/28 03:22:45;;;;;;;18.67;2.40;;;11.50;99.90;;;;;;2080292;28;20026;-72
2021/09/28 03:23:46;;;;;;;21.70;2.70;;;11.40;99.90;;;;;;2080074;28;20060;-72
2021/09/28 03:24:47;;;;;;;18.70;2.97;;;11.40;99.90;;;;;;2088246;28;20021;-72
2021/09/28 03:25:48;;;;;;;15.20;2.58;;;11.50;99.90;;;;;;2080036;28;20036;-71
2021/09/28 03:26:48;;;;;;;14.55;2.33;;;11.50;99.90;;;;;;2080509;28;20141;-72
2021/09/28 03:27:49;;;;;;;16.70;3.00;;;11.60;99.90;;;;;;2080227;28;20071;-72
2021/09/28 03:28:50;;;;;;;13.30;2.67;;;11.60;99.90;;;;;;2088905;28;20021;-72
2021/09/28 03:29:50;;;;;;;18.30;2.78;;;11.60;99.90;;;;;;2080409;28;20060;-72
2021/09/28 03:30:51;;;;;;;38.28;4.30;;;11.60;99.90;;;;;;2080414;28;20109;-72
2021/09/28 03:31:52;;;;;;;19.25;2.90;;;11.60;99.90;;;;;;2080549;28;20057;-72
2021/09/28 03:32:52;;;;;;;19.58;2.90;;;11.60;99.90;;;;;;2082383;28;20052;-72
2021/09/28 03:33:53;;;;;;;22.33;2.88;;;11.70;99.90;;;;;;2081359;28;20060;-72
2021/09/28 03:34:54;;;;;;;27.42;2.47;;;11.60;99.90;;;;;;2080487;28;20639;-72
2021/09/28 03:35:55;;;;;;;14.82;2.00;;;11.60;99.90;;;;;;2080130;28;20109;-72
2021/09/28 03:36:55;;;;;;;16.52;3.35;;;11.70;99.90;;;;;;2082276;28;20025;-73
2021/09/28 03:37:56;;;;;;;20.75;2.08;;;11.70;99.90;;;;;;2080721;28;20152;-72
2021/09/28 03:38:57;;;;;;;20.10;3.50;;;11.70;99.90;;;;;;2081250;28;20104;-72
2021/09/28 03:39:58;;;;;;;16.58;2.42;;;11.70;99.90;;;;;;2081242;28;20585;-72
2021/09/28 03:40:59;;;;;;;23.80;2.95;;;11.70;99.90;;;;;;2081065;28;20025;-72
2021/09/28 03:42:00;;;;;;;18.25;3.70;;;11.70;99.90;;;;;;2088440;28;20111;-72
2021/09/28 03:43:00;;;;;;;16.40;2.85;;;11.70;99.90;;;;;;2087730;28;20099;-72
2021/09/28 03:44:01;;;;;;;19.85;2.53;;;11.80;99.90;;;;;;2081265;28;20102;-72
2021/09/28 03:45:03;;;;;;;19.45;3.35;;;11.70;99.90;;;;;;2080319;28;20639;-72
2021/09/28 03:46:04;;;;;;;14.27;3.08;;;11.70;99.90;;;;;;2080279;28;20117;-72
2021/09/28 03:47:05;;;;;;;15.48;3.00;;;11.80;99.90;;;;;;2082883;28;20021;-72
2021/09/28 03:48:06;;;;;;;15.85;2.50;;;11.80;99.90;;;;;;2079752;28;20037;-73
2021/09/28 03:49:07;;;;;;;16.95;2.80;;;11.80;99.90;;;;;;2085572;28;20508;-73
2021/09/28 03:50:08;;;;;;;16.40;2.47;;;11.80;99.90;;;;;;2092649;28;20026;-72
2021/09/28 03:51:09;;;;;;;19.77;2.38;;;11.80;99.90;;;;;;2082933;28;20100;-72
2021/09/28 03:52:10;;;;;;;14.88;2.13;;;11.80;99.90;;;;;;2082434;28;20458;-73
2021/09/28 03:53:10;;;;;;;18.88;2.53;;;11.80;99.90;;;;;;2082273;28;20025;-73
2021/09/28 03:54:11;;;;;;;17.77;3.15;;;11.80;99.90;;;;;;2082539;28;20465;-73
2021/09/28 03:55:14;;;;;;;17.23;2.80;;;11.80;99.90;;;;;;2081658;28;20025;-72
2021/09/28 03:56:14;;;;;;;16.80;1.98;;;11.80;99.90;;;;;;2074806;28;20458;-73
2021/09/28 03:57:15;;;;;;;15.48;2.55;;;11.80;99.90;;;;;;2088165;28;20029;-72
2021/09/28 03:58:16;;;;;;;17.27;2.90;;;11.80;99.90;;;;;;2081515;28;20033;-72
2021/09/28 03:59:17;;;;;;;17.20;2.53;;;11.80;99.90;;;;;;2082235;28;20056;-72
2021/09/28 04:00:20;;;;;;;17.70;3.35;;;11.90;99.90;;;;;;2081809;28;20025;-72
2021/09/28 04:01:20;;;;;;;18.02;2.53;;;11.80;99.90;;;;;;2081847;28;20053;-72
2021/09/28 04:02:21;;;;;;;15.80;2.30;;;11.90;99.90;;;;;;2087601;28;20056;-71
2021/09/28 04:03:22;;;;;;;22.75;2.58;;;11.90;99.90;;;;;;2089807;28;20013;-71
2021/09/28 04:04:23;;;;;;;16.33;2.33;;;11.90;99.90;;;;;;2081898;28;20405;-72
2021/09/28 04:05:23;;;;;;;15.50;2.67;;;11.90;99.90;;;;;;2084471;28;20109;-72
2021/09/28 04:06:24;;;;;;;19.75;2.88;;;11.90;99.90;;;;;;2082528;28;20044;-72
2021/09/28 04:07:25;;;;;;;17.42;3.15;;;11.90;99.90;;;;;;2081668;28;20090;-72
2021/09/28 04:08:25;;;;;;;17.88;3.47;;;11.90;99.90;;;;;;2081935;28;20052;-72
2021/09/28 04:09:26;;;;;;;17.70;2.42;;;11.80;99.90;;;;;;2081759;28;20060;-72
2021/09/28 04:10:27;;;;;;;19.75;2.65;;;11.90;99.90;;;;;;2076412;28;20076;-71
2021/09/28 04:11:27;;;;;;;14.68;2.38;;;11.90;99.90;;;;;;2090078;28;20032;-72
2021/09/28 04:12:28;;;;;;;14.77;2.58;;;11.80;99.90;;;;;;2086067;28;20025;-72
2021/09/28 04:13:29;;;;;;;16.35;2.40;;;11.80;99.90;;;;;;2081933;28;20027;-72
2021/09/28 04:14:30;;;;;;;15.10;2.17;;;11.90;99.90;;;;;;2089392;28;20051;-73
2021/09/28 04:15:38;;;;;;;14.80;3.10;;;11.80;99.90;;;;;;2088546;28;20087;-72
2021/09/28 04:16:38;;;;;;;20.98;2.42;;;11.80;99.90;;;;;;2090192;28;20025;-72
2021/09/28 04:17:39;;;;;;;17.52;3.30;;;11.80;99.90;;;;;;2095259;28;20562;-72
2021/09/28 04:18:40;;;;;;;12.02;2.03;;;11.80;99.90;;;;;;2082426;28;20025;-72
2021/09/28 04:19:40;;;;;;;20.70;2.28;;;11.80;99.90;;;;;;2085575;28;20052;-72
2021/09/28 04:20:43;;;;;;;23.63;2.78;;;11.80;99.90;;;;;;2089498;28;20063;-71
2021/09/28 04:21:43;;;;;;;;;;;11.80;99.90;;;;;;2082210;28;20531;-72
2021/09/28 04:22:44;;;;;;;14.68;2.10;;;11.80;99.90;;;;;;2081173;28;19912;-72
2021/09/28 04:23:45;;;;;;;15.57;2.58;;;11.80;99.90;;;;;;2082078;28;20025;-72
2021/09/28 04:24:46;;;;;;;19.45;2.70;;;11.80;99.90;;;;;;2081748;28;20030;-72
2021/09/28 04:25:47;;;;;;;15.50;2.55;;;11.80;99.90;;;;;;2082162;28;20747;-72
2021/09/28 04:26:47;;;;;;;14.75;2.72;;;11.70;99.90;;;;;;2081769;28;20028;-72
2021/09/28 04:27:48;;;;;;;14.15;2.33;;;11.70;99.90;;;;;;2086810;28;20040;-72
2021/09/28 04:28:49;;;;;;;15.43;2.72;;;11.70;99.90;;;;;;2088442;28;20059;-72
2021/09/28 04:29:50;;;;;;;15.18;2.85;;;11.70;99.90;;;;;;2087665;28;20079;-72
2021/09/28 04:30:50;;;;;;;18.55;2.60;;;11.70;99.90;;;;;;2087289;28;20028;-72
2021/09/28 04:31:51;;;;;;;18.83;2.10;;;11.70;99.90;;;;;;2081930;28;20493;-72
2021/09/28 04:32:52;;;;;;;17.98;2.40;;;11.60;99.90;;;;;;2082030;28;20022;-72
2021/09/28 04:33:52;;;;;;;20.75;3.08;;;11.70;99.90;;;;;;2081631;28;20026;-72
2021/09/28 04:34:53;;;;;;;14.60;2.53;;;11.70;99.90;;;;;;2081946;28;20049;-72
2021/09/28 04:35:54;;;;;;;15.93;2.60;;;11.60;99.90;;;;;;2085977;28;20396;-72
2021/09/28 04:36:54;;;;;;;22.23;3.40;;;11.60;99.90;;;;;;2089903;28;20033;-72
2021/09/28 04:37:55;;;;;;;18.60;2.85;;;11.70;99.90;;;;;;2085703;28;20028;-72
2021/09/28 04:38:56;;;;;;;23.75;4.20;;;11.70;99.90;;;;;;2082491;28;20048;-72
2021/09/28 04:39:56;;;;;;;20.55;3.53;;;11.70;99.90;;;;;;2076526;28;20034;-72
2021/09/28 04:40:58;;;;;;;15.82;2.88;;;11.60;99.90;;;;;;2076762;28;20079;-72
2021/09/28 04:41:59;;;;;;;16.73;2.55;;;11.60;99.90;;;;;;2081535;28;20032;-72
2021/09/28 04:43:00;;;;;;;18.40;3.10;;;11.60;99.90;;;;;;2087324;28;20104;-72
2021/09/28 04:44:00;;;;;;;18.92;3.95;;;11.60;99.90;;;;;;2090077;28;20025;-72
2021/09/28 04:45:03;;;;;;;14.73;2.30;;;11.60;99.90;;;;;;2081625;28;20020;-72
2021/09/28 04:46:04;;;;;;;21.30;2.70;;;11.60;99.90;;;;;;2087698;28;20021;-72
2021/09/28 04:47:05;;;;;;;21.65;3.08;;;11.60;99.90;;;;;;2086277;28;20040;-72
2021/09/28 04:48:05;;;;;;;14.07;1.95;;;11.50;99.90;;;;;;2082043;28;20433;-72
2021/09/28 04:49:06;;;;;;;19.13;2.53;;;11.50;99.90;;;;;;2082603;28;20026;-72
2021/09/28 04:50:07;;;;;;;13.32;2.70;;;11.50;99.90;;;;;;2092506;28;20489;-73
2021/09/28 04:51:08;;;;;;;23.30;3.53;;;11.50;99.90;;;;;;2085249;28;20066;-72
2021/09/28 04:52:09;;;;;;;15.48;3.05;;;11.50;99.90;;;;;;2084027;28;20524;-72
2021/09/28 04:53:09;;;;;;;14.13;2.10;;;11.50;99.90;;;;;;2072815;28;20143;-72
2021/09/28 04:54:10;;;;;;;25.23;3.30;;;11.50;99.90;;;;;;2087554;28;20488;-72
2021/09/28 04:55:11;;;;;;;23.17;3.05;;;11.60;99.90;;;;;;2084768;28;20025;-72
2021/09/28 04:56:13;;;;;;;19.30;2.65;;;11.50;99.90;;;;;;2089375;28;20033;-72
2021/09/28 04:57:13;;;;;;;16.85;2.55;;;11.50;99.90;;;;;;2081382;28;20425;-72
2021/09/28 04:58:14;;;;;;;17.10;2.63;;;11.50;99.90;;;;;;2078594;28;20029;-72
2021/09/28 04:59:15;;;;;;;19.55;2.85;;;11.50;99.90;;;;;;2081268;28;20398;-72
2021/09/28 05:00:16;;;;;;;19.20;2.42;;;11.50;99.90;;;;;;2082771;28;20021;-72
2021/09/28 05:01:17;;;;;;;13.40;1.90;;;11.50;99.90;;;;;;2085943;28;20062;-72
2021/09/28 05:02:17;;;;;;;20.27;2.83;;;11.50;99.90;;;;;;2084224;28;20025;-72
2021/09/28 05:03:18;;;;;;;16.90;2.42;;;11.50;99.90;;;;;;2089442;28;20029;-72
2021/09/28 05:04:19;;;;;;;19.40;2.30;;;11.50;99.90;;;;;;2090340;28;20024;-72
2021/09/28 05:05:20;;;;;;;18.25;2.80;;;11.50;99.90;;;;;;2086914;28;20056;-72
2021/09/28 05:06:21;;;;;;;22.85;3.10;;;11.50;99.90;;;;;;2083749;28;20026;-72
2021/09/28 05:07:21;;;;;;;18.42;2.70;;;11.50;99.90;;;;;;2084039;28;20029;-72
2021/09/28 05:08:22;;;;;;;8.43;1.77;;;11.50;99.90;;;;;;2086296;28;21092;-72
2021/09/28 05:09:23;;;;;;;19.02;3.00;;;11.50;99.90;;;;;;2081763;28;20025;-72
2021/09/28 05:10:23;;;;;;;18.60;2.58;;;11.40;99.90;;;;;;2081995;28;20022;-72
2021/09/28 05:11:24;;;;;;;18.33;2.72;;;11.40;99.90;;;;;;2083137;28;20059;-72
2021/09/28 05:12:25;;;;;;;17.58;3.08;;;11.40;99.90;;;;;;2085076;28;20101;-72
2021/09/28 05:13:26;;;;;;;20.17;2.53;;;11.40;99.90;;;;;;2081271;28;20056;-72
2021/09/28 05:14:27;;;;;;;12.77;2.40;;;11.40;99.90;;;;;;2082917;28;20024;-73